Terminal Aerodrome Forecast
Issued by NWS

Current Version | Previous Version | Text Only | Print | Product List | Glossary On
Versions: 1 2 3 4 5 6 7 8 9 10 11 12 13 14 15 16 17 18
000
FTUS44 KMAF 271700 RRA
TAFHOB
TAF
KHOB 271752Z 2718/2818 14014G22KT P6SM SCT300
     FM280000 15013KT P6SM BKN100
     FM280400 15006KT P6SM SCT100 BKN300
     FM280900 VRB04KT 5SM BR OVC011
     FM281100 VRB04KT 2SM BR OVC006
      TEMPO 2811/2814 1/2SM FG OVC004
     FM281500 15012KT P6SM SCT030 BKN250=

USA.gov is the U.S. government's official web portal to all federal, state and local government web resources and services.